Impacts METAR Board
IDs:

KTPA - Tampa Intl Arpt, FL, US

Updated at: 1900 UTC 23 Jun 2018
Potential Impact None Slight Moderate High
Time 23/07Z 23/08Z 23/09Z 23/10Z 23/11Z 23/12Z 23/13Z 23/14Z 23/15Z 23/16Z 23/17Z 23/18Z 23/19Z
Temp83 83 83 82 82 84 86 87 88 89 90 90 91
Dewpt74 74 74 74 74 75 75 73 73 72 71 74 71
Altim29.97 29.98 29.97 29.98 30.00 30.02 30.02 30.03 30.04 30.03 30.03 30.02 30.01
VIS10 10 10 10 10 10 10 10 10 10 10 10 10
CIG300 -- 300 300 300 -- -- -- -- -- -- -- --
CoverBKNCLRBKNBKNBKNSCTSCTSCTSCTSCTSCTSCTSCT
FltCatVFRVFRVFRVFRVFRVFRVFRVFRVFRVFRVFRVFRVFR
WX--------------------------
WDir230240240250240240240260260250270270260
WSpd6 7 8 7 6 5 8 8 10 10 8 10 11
WGst-- -- -- -- -- -- -- -- -- -- -- -- --
Raw hourly METARs
KTPA 230653Z 23006KT 10SM SCT021 BKN300 28/23 A2997 RMK AO2 SLP150 T02830233
KTPA 230753Z 24007KT 10SM CLR 28/23 A2998 RMK AO2 SLP151 T02830233
KTPA 230853Z 24008KT 10SM SCT022 BKN300 28/23 A2997 RMK AO2 SLP149 T02830233 56005
KTPA 230953Z 25007KT 10SM SCT022 BKN300 28/23 A2998 RMK AO2 SLP152 T02780233
KTPA 231053Z 24006KT 10SM SCT021 BKN300 28/23 A3000 RMK AO2 SLP157 T02780233
KTPA 231153Z 24005KT 10SM FEW025TCU SCT250 29/24 A3002 RMK AO2 SLP165 TCU NE-E AND DSNT NW 70036 T02890239 10289 20278 53015
KTPA 231253Z 24008KT 10SM SCT026 SCT250 30/24 A3002 RMK AO2 SLP166 T03000239
KTPA 231353Z 26008KT 10SM FEW028 SCT250 31/23 A3003 RMK AO2 SLP168 TCU DSNT N T03060228
KTPA 231453Z 26010KT 10SM SCT034 SCT250 31/23 A3004 RMK AO2 SLP170 T03110228 53006
KTPA 231553Z 25010KT 10SM SCT035 SCT250 32/22 A3003 RMK AO2 SLP169 T03170222
KTPA 231653Z 27008KT 230V290 10SM SCT040 SCT250 32/22 A3003 RMK AO2 SLP168 T03220217
KTPA 231753Z 27010KT 10SM SCT036 SCT250 32/23 A3002 RMK AO2 SLP165 T03220233 10328 20289 58005
KTPA 231853Z 26011KT 10SM SCT036TCU 33/22 A3001 RMK AO2 SLP161 CB DSNT NE-E TCU NE-E AND SE T03280217



Page loaded:  19:33 UTC  |   12:33 PM Pacific  |   01:33 PM Mountain  |   02:33 PM Central  |   03:33 PM Eastern

 

ADVISORIES

FORECASTS

FORECASTS

OBSERVATIONS

USER TOOLS

ABOUT US